Time;durP1;ratioP1;P1;durP2;ratioP2;P2;SDS_P1;SDS_P2;PMS_P1;PMS_P2;Temp;Humidity;BMP_temperature;BMP_pressure;BME280_temperature;BME280_humidity;BME280_pressure;Samples;Min_cycle;Max_cycle;Signal;HPM_P1;HPM_P2
2024/02/18 00:00:04;;;;;;;58.97;48.72;;;9.80;99.90;;;;;;5039834;28;20040;-74
2024/02/18 00:02:31;;;;;;;62.47;50.33;;;9.80;99.90;;;;;;5038428;28;20563;-74
2024/02/18 00:04:59;;;;;;;55.20;46.88;;;9.80;99.90;;;;;;5042837;28;20501;-74
2024/02/18 00:07:25;;;;;;;60.15;47.75;;;9.80;99.90;;;;;;5053456;28;20564;-74
2024/02/18 00:09:52;;;;;;;57.80;47.65;;;9.80;99.90;;;;;;5042138;28;20104;-74
2024/02/18 00:12:18;;;;;;;59.97;48.33;;;9.80;99.90;;;;;;5060748;28;20493;-74
2024/02/18 00:14:44;;;;;;;60.15;48.80;;;9.80;99.90;;;;;;5051845;28;20250;-74
2024/02/18 00:17:10;;;;;;;59.40;49.38;;;9.70;99.90;;;;;;5045253;28;20052;-74
2024/02/18 00:19:36;;;;;;;60.10;46.75;;;9.70;99.90;;;;;;5055002;28;20492;-74
2024/02/18 00:22:02;;;;;;;58.25;48.70;;;9.70;99.90;;;;;;5055341;28;20048;-74
2024/02/18 00:24:28;;;;;;;56.92;47.78;;;9.70;99.90;;;;;;5040285;28;20063;-74
2024/02/18 00:26:54;;;;;;;56.78;46.10;;;9.70;99.90;;;;;;5041981;28;20044;-75
2024/02/18 00:29:20;;;;;;;57.88;49.17;;;9.70;99.90;;;;;;5045637;28;20185;-74
2024/02/18 00:31:46;;;;;;;55.05;46.97;;;9.60;99.90;;;;;;5054569;28;20044;-74
2024/02/18 00:34:12;;;;;;;75.10;47.38;;;9.70;99.90;;;;;;5044926;28;20085;-75
2024/02/18 00:36:38;;;;;;;51.10;44.65;;;9.60;99.90;;;;;;5059414;28;20509;-74
2024/02/18 00:39:04;;;;;;;59.17;48.50;;;9.70;99.90;;;;;;5040551;28;20064;-74
2024/02/18 00:41:29;;;;;;;50.38;43.03;;;9.60;99.90;;;;;;5037116;28;20056;-74
2024/02/18 00:43:55;;;;;;;51.97;41.95;;;9.60;99.90;;;;;;5047549;28;20041;-74
2024/02/18 00:46:21;;;;;;;49.33;42.20;;;9.60;99.90;;;;;;5040674;28;20281;-75
2024/02/18 00:48:47;;;;;;;50.17;40.95;;;9.60;99.90;;;;;;5033971;28;20044;-74
2024/02/18 00:51:12;;;;;;;47.97;41.10;;;9.60;99.90;;;;;;5044698;28;20097;-74
2024/02/18 00:53:38;;;;;;;50.03;41.58;;;9.60;99.90;;;;;;5061749;28;20122;-75
2024/02/18 00:56:04;;;;;;;45.78;40.08;;;9.60;99.90;;;;;;5051563;28;20507;-74
2024/02/18 00:58:30;;;;;;;49.78;39.85;;;9.60;99.90;;;;;;5069822;28;20378;-74
2024/02/18 01:00:55;;;;;;;49.03;39.08;;;9.60;99.90;;;;;;5066888;28;20047;-75
2024/02/18 01:03:21;;;;;;;46.95;41.13;;;9.60;99.90;;;;;;5052931;28;20302;-74
2024/02/18 01:05:47;;;;;;;43.45;38.20;;;9.60;99.90;;;;;;5058267;28;20074;-75
2024/02/18 01:08:13;;;;;;;48.90;40.33;;;9.50;99.90;;;;;;5051538;28;20127;-74
2024/02/18 01:10:39;;;;;;;46.47;38.95;;;9.60;99.90;;;;;;5067167;28;20036;-75
2024/02/18 01:13:05;;;;;;;46.92;39.15;;;9.60;99.90;;;;;;5054167;28;20081;-74
2024/02/18 01:15:34;;;;;;;44.10;37.45;;;9.60;99.90;;;;;;5053429;28;20131;-75
2024/02/18 01:18:00;;;;;;;41.10;36.72;;;9.60;99.90;;;;;;5062069;28;20171;-75
2024/02/18 01:20:26;;;;;;;45.50;36.97;;;9.60;99.90;;;;;;5049375;28;20051;-75
2024/02/18 01:23:00;;;;;;;41.75;35.90;;;9.60;99.90;;;;;;5069748;28;20216;-75
2024/02/18 01:25:26;;;;;;;44.20;37.00;;;9.60;99.90;;;;;;5065212;28;20050;-74
2024/02/18 01:27:51;;;;;;;39.95;34.28;;;9.60;99.90;;;;;;5052617;28;20218;-74
2024/02/18 01:30:19;;;;;;;38.78;34.33;;;9.60;99.90;;;;;;5055321;28;20048;-75
2024/02/18 01:32:48;;;;;;;43.83;35.60;;;9.60;99.90;;;;;;5045033;28;20039;-74
2024/02/18 01:35:14;;;;;;;40.10;34.60;;;9.60;99.90;;;;;;5052599;28;20512;-75
2024/02/18 01:37:40;;;;;;;35.92;31.75;;;9.60;99.90;;;;;;5045464;28;20049;-75
2024/02/18 01:40:07;;;;;;;38.53;33.72;;;9.60;99.90;;;;;;5053429;28;20500;-74
2024/02/18 01:42:35;;;;;;;39.35;32.72;;;9.60;99.90;;;;;;5053566;28;20093;-75
2024/02/18 01:45:01;;;;;;;38.90;33.20;;;9.70;99.90;;;;;;5061614;28;20037;-75
2024/02/18 01:47:27;;;;;;;34.58;30.90;;;9.70;99.90;;;;;;5055264;28;20036;-74
2024/02/18 01:49:53;;;;;;;37.97;31.58;;;9.70;99.90;;;;;;5060715;28;20051;-74
2024/02/18 01:52:20;;;;;;;33.05;29.58;;;9.70;99.90;;;;;;5045521;28;20045;-74
2024/02/18 01:54:46;;;;;;;35.70;29.60;;;9.70;99.90;;;;;;5053320;28;20040;-75
2024/02/18 01:57:13;;;;;;;34.20;28.15;;;9.70;99.90;;;;;;5061718;28;20056;-75
2024/02/18 01:59:40;;;;;;;32.88;28.25;;;9.70;99.90;;;;;;5069158;28;20047;-74
2024/02/18 02:02:07;;;;;;;33.38;29.55;;;9.70;99.90;;;;;;5051401;28;20044;-74
2024/02/18 02:04:33;;;;;;;32.22;25.83;;;9.70;99.90;;;;;;5054537;28;20119;-75
2024/02/18 02:07:02;;;;;;;29.60;26.00;;;9.70;99.90;;;;;;5048668;28;20385;-74
2024/02/18 02:09:29;;;;;;;32.92;25.65;;;9.70;99.90;;;;;;5053901;28;20128;-75
2024/02/18 02:11:55;;;;;;;32.80;26.27;;;9.70;99.90;;;;;;5044750;28;20040;-75
2024/02/18 02:14:21;;;;;;;28.80;25.27;;;9.80;99.90;;;;;;5051817;28;20041;-75
2024/02/18 02:16:47;;;;;;;29.90;23.77;;;9.80;99.90;;;;;;5061412;28;20404;-74
2024/02/18 02:19:12;;;;;;;30.23;24.33;;;9.80;99.90;;;;;;5035694;28;20530;-74
2024/02/18 02:21:38;;;;;;;31.95;24.38;;;9.80;99.90;;;;;;5046013;28;20421;-74
2024/02/18 02:24:04;;;;;;;24.90;22.10;;;9.80;99.90;;;;;;5040202;28;20048;-75
2024/02/18 02:26:35;;;;;;;26.23;23.25;;;9.80;99.90;;;;;;5070261;28;20121;-74
2024/02/18 02:29:08;;;;;;;28.42;23.40;;;9.80;99.90;;;;;;5053912;28;20521;-74
2024/02/18 02:31:34;;;;;;;27.52;21.83;;;9.90;99.90;;;;;;5049871;28;20036;-75
2024/02/18 02:34:00;;;;;;;26.20;22.88;;;9.90;99.90;;;;;;5072738;28;20190;-74
2024/02/18 02:36:26;;;;;;;27.67;22.00;;;9.90;99.90;;;;;;5061932;28;20127;-74
2024/02/18 02:38:51;;;;;;;23.13;20.70;;;9.90;99.90;;;;;;5048859;28;20032;-74
2024/02/18 02:41:18;;;;;;;24.65;20.90;;;9.90;99.90;;;;;;5052900;28;20051;-74
2024/02/18 02:43:44;;;;;;;28.88;21.35;;;9.80;99.90;;;;;;5044444;28;20132;-75
2024/02/18 02:46:09;;;;;;;23.13;19.33;;;9.90;99.90;;;;;;5040735;28;20816;-74
2024/02/18 02:48:35;;;;;;;26.98;20.27;;;10.00;99.90;;;;;;5046516;28;20105;-75
2024/02/18 02:51:01;;;;;;;27.23;20.27;;;10.00;99.90;;;;;;5050023;28;20043;-74
2024/02/18 02:53:27;;;;;;;23.67;18.98;;;10.00;99.90;;;;;;5040748;28;20052;-74
2024/02/18 02:55:52;;;;;;;25.08;19.27;;;10.00;99.90;;;;;;5065080;28;20073;-75
2024/02/18 02:58:18;;;;;;;25.30;18.20;;;10.00;99.90;;;;;;5054905;28;20127;-74
2024/02/18 03:00:44;;;;;;;22.73;17.65;;;10.00;99.90;;;;;;5050301;28;20044;-76
2024/02/18 03:03:10;;;;;;;22.77;18.15;;;10.00;99.90;;;;;;5058898;28;20056;-74
2024/02/18 03:05:35;;;;;;;20.48;17.60;;;10.00;99.90;;;;;;5064759;28;20037;-74
2024/02/18 03:08:01;;;;;;;21.17;17.48;;;10.00;99.90;;;;;;5044643;28;20032;-74
2024/02/18 03:10:27;;;;;;;19.52;16.10;;;10.00;99.90;;;;;;5067183;28;20428;-75
2024/02/18 03:12:53;;;;;;;19.20;16.70;;;10.00;99.90;;;;;;5038972;28;20047;-74
2024/02/18 03:15:19;;;;;;;24.08;17.30;;;10.00;99.90;;;;;;5061393;28;20104;-75
2024/02/18 03:17:44;;;;;;;20.42;15.98;;;10.00;99.90;;;;;;5054382;28;20054;-75
2024/02/18 03:20:11;;;;;;;20.50;16.70;;;10.00;99.90;;;;;;5038136;28;20052;-74
2024/02/18 03:22:37;;;;;;;18.08;15.07;;;10.00;99.90;;;;;;5046311;28;20922;-75
2024/02/18 03:25:03;;;;;;;20.30;15.10;;;10.00;99.90;;;;;;5050533;28;20080;-74
2024/02/18 03:27:30;;;;;;;20.67;15.05;;;10.00;99.90;;;;;;5062109;28;20044;-74
2024/02/18 03:29:58;;;;;;;17.70;13.57;;;10.00;99.90;;;;;;5055066;28;20560;-74
2024/02/18 03:32:24;;;;;;;16.83;13.82;;;10.00;99.90;;;;;;5055126;28;20127;-74
2024/02/18 03:34:50;;;;;;;17.38;13.90;;;10.00;99.90;;;;;;5036228;28;20136;-74
2024/02/18 03:37:15;;;;;;;18.95;13.95;;;10.00;99.90;;;;;;5064364;28;20474;-74
2024/02/18 03:39:41;;;;;;;16.17;13.77;;;10.00;99.90;;;;;;5062715;28;20053;-75
2024/02/18 03:42:07;;;;;;;20.45;12.70;;;10.00;99.90;;;;;;5057966;28;20048;-75
2024/02/18 03:44:33;;;;;;;17.08;11.68;;;10.00;99.90;;;;;;5053146;28;20043;-74
2024/02/18 03:47:00;;;;;;;13.77;11.80;;;10.00;99.90;;;;;;5060224;28;20489;-74
2024/02/18 03:49:25;;;;;;;16.23;11.73;;;10.00;99.90;;;;;;5057265;28;20058;-74
2024/02/18 03:51:51;;;;;;;16.90;11.07;;;10.10;99.90;;;;;;5062682;28;20131;-74
2024/02/18 03:54:18;;;;;;;13.60;10.93;;;10.10;99.90;;;;;;5061614;28;20079;-74
2024/02/18 03:56:43;;;;;;;17.00;10.77;;;10.10;99.90;;;;;;5047256;28;20490;-74
2024/02/18 03:59:12;;;;;;;16.33;10.52;;;10.10;99.90;;;;;;5067672;28;20127;-74
2024/02/18 04:01:38;;;;;;;15.98;11.27;;;10.10;99.90;;;;;;5054119;28;20548;-74
2024/02/18 04:04:04;;;;;;;14.30;10.32;;;10.10;99.90;;;;;;5061548;28;20131;-74
2024/02/18 04:06:30;;;;;;;13.85;10.02;;;10.10;99.90;;;;;;5051893;28;20115;-75
2024/02/18 04:08:55;;;;;;;14.73;10.18;;;10.10;99.90;;;;;;5060857;28;20161;-75
2024/02/18 04:11:21;;;;;;;15.57;10.02;;;10.10;99.90;;;;;;5058390;28;20040;-74
2024/02/18 04:13:47;;;;;;;13.18;9.02;;;10.10;99.90;;;;;;5061299;28;20076;-74
2024/02/18 04:16:13;;;;;;;14.88;9.43;;;10.10;99.90;;;;;;5045795;28;20040;-74
2024/02/18 04:18:38;;;;;;;15.80;9.93;;;10.10;99.90;;;;;;5063096;28;20032;-74
2024/02/18 04:21:04;;;;;;;14.90;10.35;;;10.10;99.90;;;;;;5056959;28;20045;-74
2024/02/18 04:23:30;;;;;;;15.40;8.82;;;10.10;99.90;;;;;;5056752;28;20066;-74
2024/02/18 04:25:56;;;;;;;12.00;8.45;;;10.10;99.90;;;;;;5052080;28;20086;-74
2024/02/18 04:28:22;;;;;;;14.05;8.98;;;10.00;99.90;;;;;;5067971;28;20144;-74
2024/02/18 04:30:47;;;;;;;15.32;8.95;;;10.10;99.90;;;;;;5049501;28;20036;-74
2024/02/18 04:33:13;;;;;;;14.10;9.40;;;10.10;99.90;;;;;;5059326;28;20055;-75
2024/02/18 04:35:42;;;;;;;13.82;8.60;;;10.10;99.90;;;;;;5041980;28;20127;-74
2024/02/18 04:38:08;;;;;;;12.82;7.68;;;10.10;99.90;;;;;;5056724;28;20037;-74
2024/02/18 04:40:34;;;;;;;11.65;7.78;;;10.10;99.90;;;;;;5061024;28;20162;-75
2024/02/18 04:42:59;;;;;;;13.88;7.82;;;10.10;99.90;;;;;;5039132;28;20052;-74
2024/02/18 04:45:25;;;;;;;13.57;7.65;;;10.10;99.90;;;;;;5063898;28;20365;-74
2024/02/18 04:47:52;;;;;;;12.82;6.47;;;10.10;99.90;;;;;;5040707;28;20036;-74
2024/02/18 04:50:21;;;;;;;11.75;6.60;;;10.10;99.90;;;;;;5055905;28;20500;-74
2024/02/18 04:52:47;;;;;;;14.80;7.38;;;10.10;99.90;;;;;;5036937;28;20403;-74
2024/02/18 04:55:13;;;;;;;13.82;7.30;;;10.10;99.90;;;;;;5036554;28;20049;-73
2024/02/18 04:57:39;;;;;;;11.35;6.43;;;10.10;99.90;;;;;;5060173;28;20066;-74
2024/02/18 05:00:06;;;;;;;10.35;6.88;;;10.10;99.90;;;;;;5045358;28;20086;-74
2024/02/18 05:02:32;;;;;;;13.38;6.88;;;10.10;99.90;;;;;;5065073;28;20043;-74
2024/02/18 05:04:59;;;;;;;10.85;6.18;;;10.10;99.90;;;;;;5038007;28;20041;-74
2024/02/18 05:07:25;;;;;;;11.43;6.53;;;10.10;99.90;;;;;;5064477;28;20044;-74
2024/02/18 05:09:51;;;;;;;12.65;7.13;;;10.10;99.90;;;;;;5060773;28;20487;-74
2024/02/18 05:12:16;;;;;;;12.75;6.28;;;10.10;99.90;;;;;;5057394;28;20048;-74
2024/02/18 05:14:42;;;;;;;12.48;6.93;;;10.10;99.90;;;;;;5054203;28;20037;-75
2024/02/18 05:17:08;;;;;;;11.20;6.43;;;10.00;99.90;;;;;;5044587;28;20048;-74
2024/02/18 05:19:34;;;;;;;11.45;6.53;;;10.10;99.90;;;;;;5043407;28;20060;-74
2024/02/18 05:22:00;;;;;;;11.43;6.75;;;10.10;99.90;;;;;;5048072;28;20070;-74
2024/02/18 05:24:26;;;;;;;11.20;6.40;;;10.00;99.90;;;;;;5052135;28;20036;-74
2024/02/18 05:26:52;;;;;;;12.48;7.00;;;10.00;99.90;;;;;;5061328;28;20420;-74
2024/02/18 05:29:17;;;;;;;12.32;6.97;;;10.00;99.90;;;;;;5054898;28;20167;-74
2024/02/18 05:31:43;;;;;;;9.88;6.40;;;9.90;99.90;;;;;;5042518;28;20051;-74
2024/02/18 05:34:09;;;;;;;11.57;7.35;;;9.90;99.90;;;;;;5048403;28;20071;-73
2024/02/18 05:36:35;;;;;;;12.75;7.38;;;9.90;99.90;;;;;;5062011;28;20521;-74
2024/02/18 05:39:02;;;;;;;15.55;8.00;;;9.90;99.90;;;;;;5065763;28;20056;-74
2024/02/18 05:41:28;;;;;;;13.35;6.72;;;9.90;99.90;;;;;;5069995;28;20100;-74
2024/02/18 05:43:54;;;;;;;11.13;7.05;;;9.80;99.90;;;;;;5066822;28;20040;-74
2024/02/18 05:46:20;;;;;;;11.63;7.45;;;9.80;99.90;;;;;;5042414;28;20048;-74
2024/02/18 05:48:46;;;;;;;14.38;7.65;;;9.80;99.90;;;;;;5063698;28;20058;-74
2024/02/18 05:51:11;;;;;;;12.90;7.38;;;9.80;99.90;;;;;;5060533;28;20048;-74
2024/02/18 05:53:37;;;;;;;14.43;7.80;;;9.80;99.90;;;;;;5056977;28;20105;-74
2024/02/18 05:56:03;;;;;;;12.05;7.30;;;9.80;99.90;;;;;;5048702;28;20040;-74
2024/02/18 05:58:29;;;;;;;13.70;7.32;;;9.70;99.90;;;;;;5066139;28;20152;-74
2024/02/18 06:00:55;;;;;;;13.05;7.22;;;9.70;99.90;;;;;;5062138;28;20115;-74
2024/02/18 06:03:20;;;;;;;10.52;7.00;;;9.70;99.90;;;;;;5062040;28;20125;-74
2024/02/18 06:05:46;;;;;;;12.77;7.18;;;9.70;99.90;;;;;;5050353;28;20071;-74
2024/02/18 06:08:12;;;;;;;10.82;7.30;;;9.70;99.90;;;;;;5048229;28;20047;-74
2024/02/18 06:10:38;;;;;;;15.73;7.68;;;9.70;99.90;;;;;;5068590;28;20048;-74
2024/02/18 06:13:03;;;;;;;13.13;7.18;;;9.70;99.90;;;;;;5047797;28;20236;-74
2024/02/18 06:15:30;;;;;;;13.88;7.10;;;9.70;99.90;;;;;;5064249;28;20044;-74
2024/02/18 06:17:57;;;;;;;13.35;7.65;;;9.60;99.90;;;;;;5048468;28;20139;-74
2024/02/18 06:20:24;;;;;;;12.93;7.90;;;9.60;99.90;;;;;;5065064;28;20056;-74
2024/02/18 06:22:50;;;;;;;13.98;7.80;;;9.70;99.90;;;;;;5051805;28;20040;-74
2024/02/18 06:25:16;;;;;;;13.13;7.07;;;9.60;99.90;;;;;;5065754;28;20047;-74
2024/02/18 06:27:43;;;;;;;12.10;6.75;;;9.60;99.90;;;;;;5048470;28;20040;-74
2024/02/18 06:30:10;;;;;;;11.52;7.20;;;9.60;99.90;;;;;;5062271;28;20054;-74
2024/02/18 06:32:36;;;;;;;12.65;7.78;;;9.60;99.90;;;;;;5043697;28;20039;-74
2024/02/18 06:35:05;;;;;;;12.40;6.97;;;9.60;99.90;;;;;;5060413;28;20037;-74
2024/02/18 06:37:31;;;;;;;13.10;7.60;;;9.60;99.90;;;;;;5069463;28;20051;-74
2024/02/18 06:39:57;;;;;;;15.02;8.40;;;9.60;99.90;;;;;;5054801;28;20134;-73
2024/02/18 06:42:22;;;;;;;14.43;7.45;;;9.60;99.90;;;;;;5065274;28;20147;-74
2024/02/18 06:44:48;;;;;;;11.10;8.02;;;9.60;99.90;;;;;;5065308;28;20467;-74
2024/02/18 06:47:14;;;;;;;12.35;7.72;;;9.60;99.90;;;;;;5064162;28;20058;-74
2024/02/18 06:49:40;;;;;;;14.90;8.25;;;9.60;99.90;;;;;;5051328;28;20120;-74
2024/02/18 06:52:06;;;;;;;13.25;8.38;;;9.60;99.90;;;;;;5068363;28;20051;-74
2024/02/18 06:54:32;;;;;;;13.60;8.10;;;9.60;99.90;;;;;;5071567;28;20043;-74
2024/02/18 06:56:57;;;;;;;15.40;9.65;;;9.60;99.90;;;;;;5055394;28;20068;-75
2024/02/18 06:59:24;;;;;;;12.50;8.60;;;9.60;99.90;;;;;;5053327;28;20032;-74
2024/02/18 07:01:49;;;;;;;12.18;8.63;;;9.50;99.90;;;;;;5073018;28;20044;-74
2024/02/18 07:04:15;;;;;;;13.73;8.95;;;9.50;99.90;;;;;;5052726;28;20130;-74
2024/02/18 07:06:41;;;;;;;15.02;10.13;;;9.50;99.90;;;;;;5062378;28;20471;-74
2024/02/18 07:09:07;;;;;;;16.08;9.40;;;9.50;99.90;;;;;;5076660;28;20384;-74
2024/02/18 07:11:33;;;;;;;14.60;9.43;;;9.50;99.90;;;;;;5054175;28;20419;-73
2024/02/18 07:13:58;;;;;;;13.93;9.35;;;9.50;99.90;;;;;;5065315;28;20381;-74
2024/02/18 07:16:24;;;;;;;17.58;9.63;;;9.50;99.90;;;;;;5049145;28;20067;-74
2024/02/18 07:18:50;;;;;;;15.05;9.32;;;9.50;99.90;;;;;;5063511;28;20403;-74
2024/02/18 07:21:16;;;;;;;17.88;10.00;;;9.50;99.90;;;;;;5049993;28;20059;-73
2024/02/18 07:23:42;;;;;;;15.73;10.07;;;9.50;99.90;;;;;;5066707;28;20032;-74
2024/02/18 07:26:11;;;;;;;16.30;9.77;;;9.50;99.90;;;;;;5049031;28;20036;-74
2024/02/18 07:28:37;;;;;;;14.90;9.07;;;9.50;99.90;;;;;;5062152;28;20052;-74
2024/02/18 07:31:04;;;;;;;14.75;9.13;;;9.50;99.90;;;;;;5066626;28;20300;-75
2024/02/18 07:33:29;;;;;;;17.30;9.95;;;9.50;99.90;;;;;;5051887;28;20097;-74
2024/02/18 07:35:55;;;;;;;16.33;9.80;;;9.50;99.90;;;;;;5066417;28;20043;-74
2024/02/18 07:38:21;;;;;;;16.42;9.45;;;9.40;99.90;;;;;;5065484;28;20044;-74
2024/02/18 07:40:46;;;;;;;16.33;9.88;;;9.40;99.90;;;;;;5064706;28;20044;-74
2024/02/18 07:43:14;;;;;;;16.10;9.80;;;9.40;99.90;;;;;;5062901;28;20036;-74
2024/02/18 07:45:41;;;;;;;18.83;9.93;;;9.50;99.90;;;;;;5049867;28;20522;-74
2024/02/18 07:48:07;;;;;;;17.83;11.10;;;9.50;99.90;;;;;;5062753;28;20070;-74
2024/02/18 07:50:33;;;;;;;17.45;9.60;;;9.40;99.90;;;;;;5062472;28;20538;-74
2024/02/18 07:52:59;;;;;;;17.15;9.80;;;9.50;99.90;;;;;;5062646;28;20071;-74
2024/02/18 07:55:26;;;;;;;16.30;10.55;;;9.50;99.90;;;;;;5045832;28;20109;-75
2024/02/18 07:57:51;;;;;;;15.88;9.68;;;9.50;99.90;;;;;;5063532;28;20093;-75
2024/02/18 08:00:17;;;;;;;17.67;10.05;;;9.50;99.90;;;;;;5048951;28;20233;-75
2024/02/18 08:02:43;;;;;;;17.55;10.02;;;9.50;99.90;;;;;;5067661;28;20094;-75
2024/02/18 08:05:09;;;;;;;13.93;9.40;;;9.50;99.90;;;;;;5044230;28;20040;-74
2024/02/18 08:07:35;;;;;;;15.07;8.93;;;9.50;99.90;;;;;;5054666;28;20636;-74
2024/02/18 08:10:07;;;;;;;15.43;9.75;;;9.50;99.90;;;;;;5053666;28;20044;-74
2024/02/18 08:12:33;;;;;;;18.88;10.23;;;9.50;99.90;;;;;;5054090;28;20047;-74
2024/02/18 08:14:59;;;;;;;17.02;9.60;;;9.50;99.90;;;;;;5055595;28;20040;-74
2024/02/18 08:17:25;;;;;;;18.77;10.52;;;9.50;99.90;;;;;;5060372;28;20098;-74
2024/02/18 08:19:50;;;;;;;15.55;9.75;;;9.50;99.90;;;;;;5047675;28;20036;-74
2024/02/18 08:22:17;;;;;;;21.77;11.13;;;9.40;99.90;;;;;;5045347;28;20409;-74
2024/02/18 08:24:42;;;;;;;15.25;9.48;;;9.40;99.90;;;;;;5045812;28;20043;-74
2024/02/18 08:27:12;;;;;;;16.35;9.73;;;9.50;99.90;;;;;;5051983;28;20048;-74
2024/02/18 08:29:38;;;;;;;15.60;10.00;;;9.40;99.90;;;;;;5058247;28;20040;-75
2024/02/18 08:32:06;;;;;;;17.33;10.40;;;9.40;99.90;;;;;;5044251;28;20291;-74
2024/02/18 08:34:34;;;;;;;14.90;9.65;;;9.40;99.90;;;;;;5054363;28;20398;-74
2024/02/18 08:37:00;;;;;;;15.20;9.38;;;9.40;99.90;;;;;;5060895;28;20088;-74
2024/02/18 08:39:26;;;;;;;14.98;8.65;;;9.40;99.90;;;;;;5066567;28;20071;-75
2024/02/18 08:41:52;;;;;;;16.23;9.15;;;9.40;99.90;;;;;;5042876;28;20095;-74
2024/02/18 08:44:18;;;;;;;14.35;9.32;;;9.40;99.90;;;;;;5050698;28;20674;-75
2024/02/18 08:46:45;;;;;;;13.85;8.80;;;9.40;99.90;;;;;;5049942;28;20042;-74
2024/02/18 08:49:11;;;;;;;14.38;9.27;;;9.40;99.90;;;;;;5048842;28;20104;-75
2024/02/18 08:51:39;;;;;;;17.98;9.43;;;9.40;99.90;;;;;;5060753;28;20044;-74
2024/02/18 08:54:08;;;;;;;12.90;9.43;;;9.40;99.90;;;;;;5038850;28;20047;-74
2024/02/18 08:56:34;;;;;;;17.48;9.52;;;9.40;99.90;;;;;;5048849;28;20047;-75
2024/02/18 08:59:00;;;;;;;14.07;8.82;;;9.40;99.90;;;;;;5060384;28;20538;-74
2024/02/18 09:01:26;;;;;;;11.40;8.48;;;9.40;99.90;;;;;;5047509;28;20139;-74
2024/02/18 09:03:52;;;;;;;14.13;8.90;;;9.40;99.90;;;;;;5050468;28;20054;-73
2024/02/18 09:06:18;;;;;;;13.52;8.93;;;9.40;99.90;;;;;;5060320;28;20040;-73
2024/02/18 09:08:47;;;;;;;14.13;8.48;;;9.40;99.90;;;;;;5057399;28;20056;-73
2024/02/18 09:11:14;;;;;;;12.50;8.57;;;9.30;99.90;;;;;;5046151;28;20638;-73
2024/02/18 09:13:40;;;;;;;12.23;8.45;;;9.30;99.90;;;;;;5043374;28;20455;-73
2024/02/18 09:16:05;;;;;;;14.10;9.32;;;9.30;99.90;;;;;;5033943;28;20041;-73
2024/02/18 09:18:31;;;;;;;11.27;7.85;;;9.30;99.90;;;;;;5033050;28;20454;-73
2024/02/18 09:20:57;;;;;;;14.68;8.68;;;9.30;99.90;;;;;;5053491;28;20040;-73
2024/02/18 09:23:23;;;;;;;11.85;9.30;;;9.30;99.90;;;;;;5037998;28;20044;-73
2024/02/18 09:25:49;;;;;;;13.30;8.48;;;9.30;99.90;;;;;;5055666;28;20080;-73
2024/02/18 09:28:15;;;;;;;14.55;8.43;;;9.30;99.90;;;;;;5058880;28;20044;-73
2024/02/18 09:30:41;;;;;;;15.50;8.38;;;9.30;99.90;;;;;;5051554;28;20041;-73
2024/02/18 09:33:07;;;;;;;12.95;8.23;;;9.30;99.90;;;;;;5038418;28;20039;-72
2024/02/18 09:35:33;;;;;;;13.32;8.05;;;9.30;99.90;;;;;;5054064;28;20436;-73
2024/02/18 09:37:59;;;;;;;14.25;8.20;;;9.30;99.90;;;;;;5064573;28;20042;-73
2024/02/18 09:40:25;;;;;;;12.18;8.38;;;9.30;99.90;;;;;;5045692;28;20060;-73
2024/02/18 09:42:51;;;;;;;13.27;8.75;;;9.30;99.90;;;;;;5034664;28;20048;-73
2024/02/18 09:45:23;;;;;;;10.35;7.22;;;9.30;99.90;;;;;;5040900;28;20082;-73
2024/02/18 09:47:50;;;;;;;12.43;7.57;;;9.30;99.90;;;;;;5056962;28;20049;-73
2024/02/18 09:50:15;;;;;;;10.20;7.40;;;9.40;99.90;;;;;;5054993;28;20143;-73
2024/02/18 09:52:42;;;;;;;10.20;7.40;;;9.40;99.90;;;;;;5060674;28;20134;-73
2024/02/18 09:55:09;;;;;;;12.05;7.78;;;9.40;99.90;;;;;;5052615;28;20041;-73
2024/02/18 09:57:34;;;;;;;12.75;7.75;;;9.40;99.90;;;;;;5041273;28;20082;-73
2024/02/18 10:00:02;;;;;;;12.18;7.43;;;9.40;99.90;;;;;;5038266;28;20083;-72
2024/02/18 10:02:28;;;;;;;10.77;7.00;;;9.40;99.90;;;;;;5041030;28;20077;-73
2024/02/18 10:04:53;;;;;;;10.40;7.00;;;9.40;99.90;;;;;;5063616;28;20036;-73
2024/02/18 10:07:19;;;;;;;11.38;6.82;;;9.50;99.90;;;;;;5050585;28;20043;-73
2024/02/18 10:09:45;;;;;;;9.43;6.43;;;9.50;99.90;;;;;;5044171;28;20071;-73
2024/02/18 10:12:11;;;;;;;10.52;7.00;;;9.50;99.90;;;;;;5038261;28;20036;-73
2024/02/18 10:14:37;;;;;;;10.85;6.75;;;9.50;99.90;;;;;;5043669;28;20633;-73
2024/02/18 10:17:04;;;;;;;12.75;7.22;;;9.50;99.90;;;;;;5060091;28;20085;-73
2024/02/18 10:19:29;;;;;;;10.35;6.70;;;9.50;99.90;;;;;;5064307;28;20128;-73
2024/02/18 10:22:00;;;;;;;7.97;6.05;;;9.50;99.90;;;;;;5050007;28;20446;-74
2024/02/18 10:24:26;;;;;;;;;;;9.50;99.90;;;;;;5069023;28;20048;-73
2024/02/18 10:26:53;;;;;;;11.35;7.22;;;9.50;99.90;;;;;;5066601;28;20277;-74
2024/02/18 10:29:19;;;;;;;8.15;6.68;;;9.40;99.90;;;;;;5065800;28;20484;-73
2024/02/18 10:31:45;;;;;;;13.95;7.30;;;9.40;99.90;;;;;;5049512;28;20093;-73
2024/02/18 10:34:10;;;;;;;8.55;6.55;;;9.40;99.90;;;;;;5064349;28;20056;-72
2024/02/18 10:36:37;;;;;;;12.32;7.00;;;9.40;99.90;;;;;;5067800;28;20047;-73
2024/02/18 10:39:12;;;;;;;11.45;7.82;;;9.50;99.90;;;;;;5049873;28;20047;-72
2024/02/18 10:41:58;;;;;;;9.57;7.75;;;9.40;99.90;;;;;;5045792;28;20047;-72
2024/02/18 10:44:25;;;;;;;11.07;8.10;;;9.40;99.90;;;;;;5059068;28;20087;-73
2024/02/18 10:46:54;;;;;;;9.43;7.72;;;9.40;99.90;;;;;;5058344;28;20152;-72
2024/02/18 10:49:44;;;;;;;10.52;7.53;;;9.40;99.90;;;;;;5052685;28;20040;-73
2024/02/18 10:52:38;;;;;;;10.35;7.90;;;9.40;99.90;;;;;;5063586;28;20478;-73
2024/02/18 10:55:11;;;;;;;10.23;8.00;;;9.40;99.90;;;;;;5041491;28;20065;-73
2024/02/18 10:57:54;;;;;;;11.50;8.93;;;9.30;99.90;;;;;;5049781;28;20052;-73
2024/02/18 11:00:23;;;;;;;10.15;8.10;;;9.30;99.90;;;;;;5049430;28;20044;-73
2024/02/18 11:03:11;;;;;;;9.32;8.20;;;9.30;99.90;;;;;;5061045;28;20055;-73
2024/02/18 11:05:38;;;;;;;10.10;8.52;;;9.30;99.90;;;;;;5048511;28;20044;-73
2024/02/18 11:08:07;;;;;;;13.65;9.10;;;9.30;99.90;;;;;;5055416;28;20100;-73
2024/02/18 11:10:35;;;;;;;12.35;9.02;;;9.30;99.90;;;;;;5039098;28;20059;-73
2024/02/18 11:13:04;;;;;;;10.88;9.18;;;9.30;99.90;;;;;;5051004;28;20055;-72
2024/02/18 11:15:31;;;;;;;13.45;9.43;;;9.20;99.90;;;;;;5072758;28;20576;-73
2024/02/18 11:17:58;;;;;;;9.68;8.68;;;9.20;99.90;;;;;;5062780;28;20044;-72
2024/02/18 11:20:24;;;;;;;10.27;8.60;;;9.20;99.90;;;;;;5057651;28;20518;-73
2024/02/18 11:22:52;;;;;;;9.82;7.88;;;9.20;99.90;;;;;;5053699;28;20081;-72
2024/02/18 11:25:18;;;;;;;10.48;8.80;;;9.20;99.90;;;;;;5053702;28;20496;-73
2024/02/18 11:27:44;;;;;;;13.32;8.90;;;9.20;99.90;;;;;;5057212;28;20466;-73
2024/02/18 11:30:14;;;;;;;10.43;8.88;;;9.20;99.90;;;;;;5068523;28;20721;-73
2024/02/18 11:32:40;;;;;;;10.85;9.75;;;9.10;99.90;;;;;;5050462;28;20044;-73
2024/02/18 11:35:10;;;;;;;10.93;9.70;;;9.10;99.90;;;;;;5062031;28;20083;-72
2024/02/18 11:37:38;;;;;;;10.73;8.45;;;9.10;99.90;;;;;;5038230;28;20122;-72
2024/02/18 11:40:09;;;;;;;11.68;10.38;;;9.10;99.90;;;;;;5034642;28;20117;-73
2024/02/18 11:42:38;;;;;;;11.50;9.18;;;9.10;99.90;;;;;;5062361;28;20652;-73
2024/02/18 11:45:13;;;;;;;10.13;8.75;;;9.10;99.90;;;;;;5057864;28;20046;-73
2024/02/18 11:47:56;;;;;;;12.65;10.77;;;9.10;99.90;;;;;;5059353;28;20381;-73
2024/02/18 11:50:25;;;;;;;12.63;9.38;;;9.00;99.90;;;;;;5051903;28;20234;-73
2024/02/18 11:52:51;;;;;;;11.85;8.98;;;9.00;99.90;;;;;;5066312;28;20043;-73
2024/02/18 11:55:18;;;;;;;11.02;9.40;;;9.00;99.90;;;;;;5048789;28;20113;-73
2024/02/18 11:57:44;;;;;;;10.63;9.50;;;9.00;99.90;;;;;;5049736;28;20048;-73
2024/02/18 12:00:12;;;;;;;9.30;8.40;;;9.00;99.90;;;;;;5047896;28;20054;-73
2024/02/18 12:02:55;;;;;;;11.40;9.35;;;9.00;99.90;;;;;;5069540;28;20040;-73
2024/02/18 12:05:23;;;;;;;12.75;9.68;;;9.00;99.90;;;;;;5064189;28;20040;-72
2024/02/18 12:07:50;;;;;;;10.75;8.73;;;9.00;99.90;;;;;;5046001;28;20495;-72
2024/02/18 12:10:20;;;;;;;11.05;8.63;;;8.90;99.90;;;;;;5048475;28;20234;-73
2024/02/18 12:12:46;;;;;;;11.63;8.68;;;9.00;99.90;;;;;;5058663;28;20067;-73
2024/02/18 12:15:23;;;;;;;9.82;8.02;;;8.90;99.90;;;;;;5047093;28;20177;-73
2024/02/18 12:17:52;;;;;;;9.43;8.02;;;9.00;99.90;;;;;;5047356;28;20046;-73
2024/02/18 12:20:19;;;;;;;9.93;7.90;;;8.90;99.90;;;;;;5037776;28;20124;-73
2024/02/18 12:22:48;;;;;;;9.82;8.27;;;8.90;99.90;;;;;;5051877;28;20117;-73
2024/02/18 12:25:14;;;;;;;13.15;8.95;;;8.90;99.90;;;;;;5046359;28;20044;-73
2024/02/18 12:27:41;;;;;;;9.48;8.13;;;8.90;99.90;;;;;;5060307;28;20179;-73
2024/02/18 12:30:07;;;;;;;10.02;8.15;;;8.80;99.90;;;;;;5045307;28;20094;-75
2024/02/18 12:32:36;;;;;;;12.07;8.23;;;8.80;99.90;;;;;;5051632;28;20044;-74
2024/02/18 12:35:05;;;;;;;9.75;7.38;;;8.80;99.90;;;;;;5058702;28;20041;-74
2024/02/18 12:37:31;;;;;;;9.80;8.23;;;8.80;99.90;;;;;;5040216;28;20151;-75